.
WxDataArchive / Data Records for 2011-05-11
2011-05-10 May 2011 2011-05-12

Data Records for Wednesday, 11 May 2011

Time	Temp	Chill	HIndex	Humid	Dewpt	 Wind 	HiWind	WindDir	Rain 	Barom 
-----	----	-----	------	-----	-----	------	------	-------	-----	----- 
00:00	59.5	59.5	59.5	65	47.7	1	5	90	0.00	29.845 
00:05	59.5	59.5	59.5	65	47.7	1	4	68	0.00	29.845 
00:10	59.3	59.3	59.3	66	47.9	0	3	112	0.00	29.845 
00:15	59.2	59.2	59.2	65	47.4	1	5	112	0.00	29.841 
00:20	59.2	59.2	59.2	66	47.8	0	2	112	0.00	29.841 
00:25	59.0	59.0	59.0	66	47.7	0	2	112	0.00	29.841 
00:30	58.9	58.9	58.9	66	47.6	1	3	112	0.00	29.844 
00:35	58.9	58.9	58.9	66	47.6	1	4	112	0.00	29.844 
00:40	58.7	58.7	58.7	67	47.8	0	1	112	0.00	29.844 
00:45	58.6	58.6	58.6	66	47.3	0	2	112	0.00	29.835 
00:50	58.6	58.6	58.6	67	47.7	0	2	112	0.00	29.835 
00:55	58.4	58.4	58.4	68	47.9	0	2	112	0.00	29.835 
01:00	58.3	58.3	58.3	68	47.8	0	2	112	0.00	29.840 
01:05	58.1	58.1	58.1	68	47.6	1	3	112	0.00	29.840 
01:10	58.1	58.1	58.1	67	47.2	1	5	112	0.00	29.840 
01:15	58.0	58.0	58.0	66	46.7	1	4	90	0.00	29.838 
01:20	58.0	58.0	58.0	67	47.1	1	2	90	0.00	29.838 
01:25	58.0	58.0	58.0	66	46.7	2	5	90	0.00	29.838 
01:30	58.0	58.0	58.0	66	46.7	1	7	90	0.00	29.847 
01:35	57.8	57.8	57.8	65	46.1	2	4	112	0.00	29.847 
01:40	57.8	57.8	57.8	66	46.5	1	2	112	0.00	29.847 
01:45	57.6	57.6	57.6	66	46.3	1	2	112	0.00	29.847 
01:50	57.5	57.5	57.5	66	46.2	1	4	112	0.00	29.847 
01:55	57.5	57.5	57.5	67	46.6	1	3	112	0.00	29.847 
02:00	57.3	57.3	57.3	67	46.4	1	3	112	0.00	29.840 
02:05	57.2	57.2	57.2	67	46.3	0	3	112	0.00	29.840 
02:10	57.0	57.0	57.0	68	46.5	0	2	112	0.00	29.840 
02:15	57.0	57.0	57.0	69	46.9	0	2	112	0.00	29.834 
02:20	56.9	56.9	56.9	69	46.8	0	1	112	0.00	29.834 
02:25	56.7	56.7	56.7	70	47.0	0	2	112	0.00	29.834 
02:30	56.6	56.6	56.6	71	47.3	0	3	112	0.00	29.834 
02:35	56.5	56.5	56.5	72	47.6	1	3	45	0.00	29.834 
02:40	56.5	56.5	56.5	73	47.9	0	3	112	0.00	29.834 
02:45	56.5	56.5	56.5	73	47.9	0	3	112	0.00	29.836 
02:50	56.5	56.5	56.5	73	47.9	0	1	112	0.00	29.836 
02:55	56.5	56.5	56.5	73	47.9	1	2	112	0.00	29.836 
03:00	56.6	56.6	56.6	73	48.0	1	3	112	0.00	29.841 
03:05	56.7	56.7	56.7	73	48.1	1	4	112	0.00	29.841 
03:10	56.7	56.7	56.7	73	48.1	0	2	112	0.00	29.841 
03:15	56.9	56.9	56.9	74	48.7	1	2	112	0.00	29.846 
03:20	56.9	56.9	56.9	74	48.7	1	3	112	0.00	29.846 
03:25	57.0	57.0	57.0	74	48.8	1	3	112	0.00	29.846 
03:30	57.0	57.0	57.0	74	48.8	0	2	112	0.00	29.851 
03:35	57.0	57.0	57.0	74	48.8	0	2	112	0.00	29.851 
03:40	57.0	57.0	57.0	73	48.4	1	3	112	0.00	29.851 
03:45	57.0	57.0	57.0	74	48.8	1	2	112	0.00	29.853 
03:50	57.0	57.0	57.0	74	48.8	1	3	112	0.00	29.853 
03:55	57.0	57.0	57.0	74	48.8	0	3	112	0.00	29.853 
04:00	57.0	57.0	57.0	74	48.8	0	2	112	0.00	29.862 
04:05	56.9	56.9	56.9	75	49.1	0	1	112	0.00	29.862 
04:10	56.9	56.9	56.9	75	49.1	0	1	112	0.00	29.862 
04:15	56.9	56.9	56.9	75	49.1	0	2	112	0.00	29.864 
04:20	56.9	56.9	56.9	75	49.1	0	1	112	0.00	29.864 
04:25	56.9	56.9	56.9	76	49.4	0	1	112	0.00	29.864 
04:30	56.7	56.7	56.7	76	49.2	1	3	112	0.00	29.866 
04:35	56.7	56.7	56.7	76	49.2	0	3	112	0.00	29.866 
04:40	56.7	56.7	56.7	77	49.6	1	2	112	0.00	29.866 
04:45	56.6	56.6	56.6	77	49.5	0	2	112	0.00	29.872 
04:50	56.6	56.6	56.6	77	49.5	1	2	112	0.00	29.872 
04:55	56.5	56.5	56.5	77	49.4	0	2	112	0.00	29.872 
05:00	56.5	56.5	56.5	78	49.7	1	2	112	0.00	29.865 
05:05	56.3	56.3	56.3	78	49.5	0	3	112	0.00	29.865 
05:10	56.3	56.3	56.3	78	49.5	0	2	112	0.00	29.865 
05:15	56.2	56.2	56.2	78	49.4	0	1	112	0.00	29.871 
05:20	56.2	56.2	56.2	79	49.8	0	1	112	0.00	29.871 
05:25	56.0	56.0	56.0	79	49.6	0	2	112	0.00	29.871 
05:30	56.0	56.0	56.0	79	49.6	0	2	112	0.00	29.868 
05:35	55.9	55.9	55.9	78	49.1	1	2	112	0.00	29.868 
05:40	55.9	55.9	55.9	78	49.1	1	4	112	0.00	29.868 
05:45	55.9	55.9	55.9	78	49.1	1	4	112	0.00	29.869 
05:50	55.7	55.7	55.7	78	48.9	1	4	112	0.00	29.869 
05:55	55.7	55.7	55.7	78	48.9	1	3	68	0.00	29.869 
06:00	55.7	55.7	55.7	78	48.9	0	2	90	0.00	29.880 
06:05	55.7	55.7	55.7	79	49.3	0	1	90	0.00	29.880 
06:10	55.6	55.6	55.6	79	49.2	0	1	90	0.00	29.880 
06:15	55.6	55.6	55.6	79	49.2	0	2	90	0.00	29.879 
06:20	55.6	55.6	55.6	80	49.5	0	1	90	0.00	29.879 
06:25	55.7	55.7	55.7	80	49.6	0	1	90	0.00	29.879 
06:30	55.7	55.7	55.7	80	49.6	0	1	90	0.00	29.874 
06:35	55.9	55.9	55.9	80	49.8	0	1	90	0.00	29.874 
06:40	56.0	56.0	56.0	81	50.3	0	1	90	0.00	29.874 
06:45	56.2	56.2	56.2	80	50.1	0	2	90	0.00	29.875 
06:50	56.3	56.3	56.3	80	50.2	0	2	90	0.00	29.875 
06:55	56.5	56.5	56.5	80	50.4	0	1	90	0.00	29.875 
07:00	56.6	56.6	56.6	81	50.8	0	2	90	0.00	29.884 
07:05	56.7	56.7	56.7	80	50.6	0	1	90	0.00	29.884 
07:10	56.9	56.9	56.9	80	50.8	0	1	90	0.00	29.884 
07:15	57.0	57.0	57.0	80	50.9	0	1	90	0.00	29.882 
07:20	57.2	57.2	57.2	80	51.1	0	1	90	0.00	29.882 
07:25	57.3	57.3	57.3	80	51.2	0	0	---	0.00	29.882 
07:30	57.5	57.5	57.5	80	51.4	0	0	---	0.00	29.871 
07:35	57.8	57.8	57.8	80	51.7	0	0	---	0.00	29.871 
07:40	58.1	58.1	58.1	80	52.0	0	0	---	0.00	29.871 
07:45	58.4	58.4	58.4	80	52.3	0	0	---	0.00	29.875 
07:50	58.7	58.7	58.7	80	52.5	0	0	---	0.00	29.875 
07:55	59.2	59.2	59.2	79	52.7	0	1	90	0.00	29.875 
08:00	59.6	59.6	59.6	78	52.7	0	0	---	0.00	29.867 
08:05	59.8	59.8	59.8	78	52.9	0	0	---	0.00	29.867 
08:10	60.2	60.2	60.2	78	53.3	0	0	---	0.00	29.867 
08:15	60.7	60.7	60.7	78	53.8	0	0	---	0.00	29.868 
08:20	61.2	61.2	61.2	78	54.3	0	0	---	0.00	29.868 
08:25	61.5	61.5	61.5	77	54.2	0	1	90	0.00	29.868 
08:30	62.0	62.0	62.0	77	54.7	0	0	---	0.00	29.868 
08:35	62.7	62.7	62.7	76	55.0	0	0	---	0.00	29.868 
08:40	63.5	63.5	63.5	75	55.4	0	0	---	0.00	29.868 
08:45	64.3	64.3	64.3	74	55.8	0	1	90	0.00	29.868 
08:50	65.3	65.3	65.3	76	57.5	0	0	---	0.00	29.868 
08:55	66.3	66.3	66.3	73	57.4	0	1	90	0.00	29.868 
09:00	67.1	67.1	67.1	73	58.1	0	1	90	0.00	29.874 
09:05	67.8	67.8	67.8	71	58.0	0	2	90	0.00	29.874 
09:10	68.3	68.3	68.3	71	58.5	1	2	90	0.00	29.874 
09:15	68.1	68.1	68.1	71	58.3	2	3	90	0.00	29.883 
09:20	67.8	67.8	67.8	72	58.4	1	3	90	0.00	29.883 
09:25	67.6	67.6	67.6	74	59.0	2	4	90	0.00	29.883 
09:30	67.4	67.4	67.4	74	58.8	2	5	90	0.00	29.889 
09:35	67.8	67.8	67.8	75	59.6	1	4	90	0.00	29.889 
09:40	68.3	68.3	68.3	73	59.3	0	2	90	0.00	29.889 
09:45	68.9	68.9	68.9	72	59.5	0	1	90	0.00	29.893 
09:50	69.4	69.4	69.4	71	59.6	1	2	90	0.00	29.893 
09:55	69.6	69.6	69.6	73	60.6	2	5	90	0.00	29.893 
10:00	69.9	69.9	69.9	72	60.4	2	5	90	0.00	29.883 
10:05	70.4	70.4	70.4	72	60.9	2	6	90	0.00	29.883 
10:10	70.8	70.8	70.8	71	60.9	1	4	112	0.00	29.883 
10:15	71.1	71.1	71.1	71	61.2	2	6	90	0.00	29.882 
10:20	71.8	71.8	71.8	70	61.5	1	4	90	0.00	29.882 
10:25	72.1	72.1	72.1	70	61.8	1	4	90	0.00	29.882 
10:30	72.5	72.5	72.5	70	62.1	2	4	90	0.00	29.879 
10:35	72.7	72.7	72.7	69	61.9	1	3	90	0.00	29.879 
10:40	73.2	73.2	73.2	69	62.4	1	3	90	0.00	29.879 
10:45	73.7	73.7	73.7	68	62.5	0	2	90	0.00	29.871 
10:50	74.4	74.4	74.4	67	62.7	1	2	90	0.00	29.871 
10:55	74.9	74.9	74.9	66	62.8	1	3	90	0.00	29.871 
11:00	75.1	75.1	77.0	67	63.4	1	4	90	0.00	29.870 
11:05	74.9	74.9	74.9	69	64.0	1	4	90	0.00	29.870 
11:10	75.4	75.4	77.3	67	63.7	1	2	90	0.00	29.870 
11:15	75.8	75.8	77.6	67	64.0	1	3	90	0.00	29.878 
11:20	76.0	76.0	77.8	66	63.8	1	2	90	0.00	29.878 
11:25	76.1	76.1	77.8	68	64.8	0	3	90	0.00	29.878 
11:30	76.8	76.8	78.6	67	65.0	0	2	90	0.00	29.881 
11:35	77.2	77.2	79.0	65	64.5	0	3	90	0.00	29.881 
11:40	77.4	77.4	79.2	64	64.2	0	3	90	0.00	29.881 
11:45	77.7	77.7	79.5	65	65.0	0	2	90	0.00	29.878 
11:50	77.9	77.9	79.7	65	65.2	1	3	90	0.00	29.878 
11:55	78.3	78.3	80.4	69	67.3	1	3	90	0.00	29.878 
12:00	78.6	78.6	80.6	66	66.3	1	3	90	0.00	29.879 
12:05	79.0	79.0	81.0	65	66.2	1	4	112	0.00	29.879 
12:10	79.6	79.6	81.8	65	66.8	2	4	112	0.00	29.879 
12:15	79.8	79.8	82.2	66	67.4	1	6	90	0.00	29.884 
12:20	79.8	79.8	81.9	63	66.1	2	5	90	0.00	29.884 
12:25	79.8	79.8	82.0	64	66.5	1	4	68	0.00	29.884 
12:30	79.6	79.6	81.8	65	66.8	2	4	112	0.00	29.889 
12:35	79.8	79.8	82.1	65	67.0	1	3	112	0.00	29.889 
12:40	79.8	79.8	82.0	64	66.5	2	5	112	0.00	29.889 
12:45	79.9	79.9	82.2	65	67.1	1	4	90	0.00	29.891 
12:50	79.9	79.9	82.1	64	66.6	2	5	112	0.00	29.891 
12:55	79.9	79.9	82.1	64	66.6	2	5	90	0.00	29.891 
13:00	80.3	80.3	82.7	64	67.0	2	4	90	0.00	29.890 
13:05	80.5	80.5	82.7	62	66.3	3	8	90	0.00	29.890 
13:10	80.3	80.3	82.7	64	67.0	1	4	90	0.00	29.890 
13:15	80.3	80.3	82.5	63	66.5	1	4	90	0.00	29.892 
13:20	80.5	80.5	83.1	65	67.6	1	3	90	0.00	29.892 
13:25	80.5	80.5	82.8	63	66.7	1	3	90	0.00	29.892 
13:30	80.5	80.5	82.8	63	66.7	1	4	90	0.00	29.894 
13:35	80.3	80.3	82.8	65	67.4	1	4	90	0.00	29.894 
13:40	80.5	80.5	83.2	66	68.1	0	3	90	0.00	29.894 
13:45	80.9	80.9	84.0	67	68.9	1	4	90	0.00	29.892 
13:50	81.6	81.6	84.9	66	69.1	2	4	90	0.00	29.892 
13:55	81.4	81.4	84.3	64	68.0	2	5	90	0.00	29.892 
14:00	81.8	81.8	84.9	64	68.4	2	5	112	0.00	29.891 
14:05	81.8	81.8	84.9	64	68.4	0	2	112	0.00	29.891 
14:10	81.8	81.8	84.7	63	67.9	1	6	112	0.00	29.891 
14:15	82.0	82.0	85.2	64	68.6	1	3	112	0.00	29.889 
14:20	82.0	82.0	85.4	65	69.0	1	4	112	0.00	29.889 
14:25	81.8	81.8	84.9	64	68.4	1	5	112	0.00	29.889 
14:30	81.8	81.8	85.1	65	68.9	2	4	112	0.00	29.891 
14:35	82.0	82.0	85.4	65	69.0	0	3	112	0.00	29.891 
14:40	82.8	82.8	86.1	62	68.4	1	3	112	0.00	29.891 
14:45	83.6	83.6	86.9	60	68.2	0	2	112	0.00	29.893 
14:50	83.8	83.8	86.9	59	67.9	1	3	112	0.00	29.893 
14:55	83.8	83.8	86.9	59	67.9	0	2	112	0.00	29.893 
15:00	83.8	83.8	87.7	62	69.4	1	4	112	0.00	29.894 
15:05	83.8	83.8	87.2	60	68.4	2	5	112	0.00	29.894 
15:10	83.8	83.8	87.5	61	68.9	2	5	90	0.00	29.894 
15:15	84.1	84.1	87.4	59	68.2	1	2	90	0.00	29.892 
15:20	84.0	84.0	87.0	58	67.6	1	4	90	0.00	29.892 
15:25	83.8	83.8	87.2	60	68.4	1	5	90	0.00	29.892 
15:30	83.4	83.4	86.8	61	68.5	1	3	68	0.00	29.890 
15:35	83.8	83.8	86.9	59	67.9	1	4	90	0.00	29.890 
15:40	84.1	84.1	87.7	60	68.7	1	4	90	0.00	29.890 
15:45	84.7	84.7	88.1	58	68.3	1	3	90	0.00	29.885 
15:50	85.1	85.1	88.8	58	68.6	2	4	90	0.00	29.885 
15:55	85.3	85.3	89.2	58	68.8	2	5	90	0.00	29.885 
16:00	85.3	85.3	89.8	60	69.8	3	6	112	0.00	29.875 
16:05	84.5	84.5	88.4	60	69.1	4	10	90	0.00	29.875 
16:10	83.8	83.8	87.7	62	69.4	3	10	90	0.00	29.875 
16:15	83.4	83.4	87.0	62	69.0	4	7	90	0.00	29.871 
16:20	83.0	83.0	86.6	63	69.1	4	8	90	0.00	29.871 
16:25	83.2	83.2	87.2	64	69.7	3	7	90	0.00	29.871 
16:30	83.8	83.8	87.7	62	69.4	3	10	90	0.00	29.867 
16:35	84.0	84.0	88.4	63	70.0	4	9	90	0.00	29.867 
16:40	84.1	84.1	88.2	62	69.6	4	10	112	0.00	29.867 
16:45	84.1	84.1	88.5	63	70.1	4	11	90	0.00	29.864 
16:50	84.3	84.3	88.6	62	69.8	3	7	90	0.00	29.864 
16:55	84.3	84.3	88.3	61	69.4	3	7	112	0.00	29.864 
17:00	84.3	84.3	88.3	61	69.4	3	7	112	0.00	29.858 
17:05	84.3	84.3	88.3	61	69.4	2	7	68	0.00	29.858 
17:10	84.1	84.1	88.0	61	69.2	2	5	90	0.00	29.858 
17:15	84.0	84.0	87.8	61	69.1	2	6	112	0.00	29.858 
17:20	83.8	83.8	87.7	62	69.4	3	6	90	0.00	29.858 
17:25	83.6	83.6	87.4	62	69.2	3	6	90	0.00	29.858 
17:30	83.8	83.8	88.0	63	69.8	3	7	90	0.00	29.860 
17:35	83.8	83.8	87.7	62	69.4	4	9	90	0.00	29.860 
17:40	83.4	83.4	87.0	62	69.0	4	7	90	0.00	29.860 
17:45	83.0	83.0	86.6	63	69.1	4	8	90	0.00	29.862 
17:50	82.8	82.8	86.5	64	69.3	2	5	112	0.00	29.862 
17:55	82.8	82.8	86.5	64	69.3	2	4	90	0.00	29.862 
18:00	83.2	83.2	86.9	63	69.3	3	9	90	0.00	29.860 
18:05	83.4	83.4	87.0	62	69.0	4	10	90	0.00	29.860 
18:10	83.4	83.4	87.3	63	69.5	4	6	90	0.00	29.860 
18:15	82.6	82.6	85.3	60	67.3	4	12	112	0.00	29.862 
18:20	81.6	81.6	84.0	61	66.8	3	6	90	0.00	29.862 
18:25	81.1	81.1	83.6	63	67.3	3	7	112	0.00	29.862 
18:30	80.9	80.9	83.4	63	67.1	2	7	90	0.00	29.860 
18:35	80.7	80.7	82.9	62	66.4	3	11	112	0.00	29.860 
18:40	80.3	80.3	82.3	61	65.6	4	9	112	0.00	29.860 
18:45	80.1	80.1	82.0	61	65.4	4	9	90	0.00	29.863 
18:50	79.8	79.8	81.5	59	64.2	3	8	112	0.00	29.863 
18:55	79.6	79.6	81.3	59	64.0	4	9	90	0.00	29.863 
19:00	79.4	79.4	81.1	60	64.3	2	6	112	0.00	29.862 
19:05	79.2	79.2	80.9	60	64.1	4	7	90	0.00	29.862 
19:10	79.0	79.0	80.7	60	63.9	4	11	112	0.00	29.862 
19:15	78.8	78.8	80.5	60	63.7	2	5	112	0.00	29.861 
19:20	78.8	78.8	80.5	60	63.7	3	7	90	0.00	29.861 
19:25	78.6	78.6	80.3	61	64.0	2	5	90	0.00	29.861 
19:30	78.6	78.6	80.3	61	64.0	2	6	90	0.00	29.867 
19:35	78.5	78.5	80.2	60	63.4	2	5	90	0.00	29.867 
19:40	78.3	78.3	79.9	59	62.8	4	9	90	0.00	29.867 
19:45	78.1	78.1	79.7	59	62.6	3	6	90	0.00	29.860 
19:50	77.9	77.9	79.6	60	62.9	3	7	90	0.00	29.860 
19:55	77.7	77.7	79.4	60	62.7	3	6	68	0.00	29.860 
20:00	77.4	77.4	79.1	60	62.4	3	10	90	0.00	29.851 
20:05	77.0	77.0	78.8	59	61.6	3	6	90	0.00	29.851 
20:10	76.7	76.7	78.5	59	61.3	3	6	90	0.00	29.851 
20:15	76.5	76.5	78.4	59	61.1	2	6	90	0.00	29.852 
20:20	76.1	76.1	78.1	59	60.7	1	4	90	0.00	29.852 
20:25	75.8	75.8	77.9	60	60.9	1	3	90	0.00	29.852 
20:30	75.4	75.4	77.6	61	61.0	1	3	90	0.00	29.856 
20:35	75.1	75.1	77.3	62	61.2	2	5	90	0.00	29.856 
20:40	74.7	74.7	74.7	61	60.3	2	5	90	0.00	29.856 
20:45	74.6	74.6	74.6	60	59.8	2	5	90	0.00	29.842 
20:50	74.2	74.2	74.2	59	58.9	3	7	90	0.00	29.842 
20:55	74.0	74.0	74.0	59	58.7	3	7	90	0.00	29.842 
21:00	73.9	73.9	73.9	59	58.7	2	5	68	0.00	29.843 
21:05	73.5	73.5	73.5	60	58.7	2	4	68	0.00	29.843 
21:10	73.2	73.2	73.2	60	58.5	2	7	90	0.00	29.843 
21:15	72.8	72.8	72.8	60	58.1	2	4	90	0.00	29.844 
21:20	72.5	72.5	72.5	60	57.8	2	6	90	0.00	29.844 
21:25	72.3	72.3	72.3	61	58.1	2	4	90	0.00	29.844 
21:30	72.1	72.1	72.1	62	58.3	1	4	90	0.00	29.849 
21:35	71.8	71.8	71.8	62	58.1	1	4	90	0.00	29.849 
21:40	71.8	71.8	71.8	62	58.1	1	4	90	0.00	29.849 
21:45	71.6	71.6	71.6	62	57.9	1	3	90	0.00	29.860 
21:50	71.5	71.5	71.5	63	58.2	1	3	90	0.00	29.860 
21:55	71.3	71.3	71.3	63	58.0	1	4	90	0.00	29.860 
22:00	71.1	71.1	71.1	64	58.3	0	2	90	0.00	29.870 
22:05	70.9	70.9	70.9	65	58.5	0	1	90	0.00	29.870 
22:10	70.6	70.6	70.6	65	58.2	0	1	90	0.00	29.870 
22:15	70.4	70.4	70.4	65	58.1	0	2	90	0.00	29.886 
22:20	70.4	70.4	70.4	65	58.1	0	2	90	0.00	29.886 
22:25	70.3	70.3	70.3	65	58.0	0	1	90	0.00	29.886 
22:30	70.1	70.1	70.1	65	57.8	1	5	90	0.00	29.887 
22:35	70.1	70.1	70.1	64	57.3	0	3	90	0.00	29.887 
22:40	69.9	69.9	69.9	62	56.3	1	4	112	0.00	29.887 
22:45	69.8	69.8	69.8	62	56.2	2	6	135	0.00	29.886 
22:50	69.6	69.6	69.6	62	56.0	1	4	112	0.00	29.886 
22:55	69.3	69.3	69.3	62	55.7	1	3	45	0.00	29.886 
23:00	69.1	69.1	69.1	62	55.5	1	3	68	0.00	29.888 
23:05	68.9	68.9	68.9	62	55.3	1	4	112	0.00	29.888 
23:10	68.8	68.8	68.8	62	55.2	1	3	112	0.00	29.888 
23:15	68.6	68.6	68.6	62	55.0	0	3	112	0.00	29.874 
23:20	68.4	68.4	68.4	61	54.4	2	6	112	0.00	29.874 
23:25	68.3	68.3	68.3	62	54.8	1	3	112	0.00	29.874 
23:30	67.9	67.9	67.9	62	54.4	1	3	112	0.00	29.869 
23:35	67.8	67.8	67.8	62	54.3	1	6	112	0.00	29.869 
23:40	67.6	67.6	67.6	62	54.1	0	3	112	0.00	29.869 
23:45	67.3	67.3	67.3	62	53.8	1	3	112	0.00	29.872 
23:50	67.1	67.1	67.1	62	53.6	0	2	112	0.00	29.872 
23:55	66.9	66.9	66.9	63	53.9	0	1	112	0.00	29.872 

CoCoRaHS
IN-AL-39
A2 Web Hosting
Creative Commons License
GoDaddy
search engine by freefind advanced

loaded 2018-11-15 03:59:52 • last modified 2010-11-18 10:43:29
Privacy PolicyDisclaimer
• wx.awcolley.com is powered by PmWiki v.2002016 •
• all content (unless otherwise noted) © 2018 A W Colley